Time;durP1;ratioP1;P1;durP2;ratioP2;P2;SDS_P1;SDS_P2;PMS_P1;PMS_P2;Temp;Humidity;BMP_temperature;BMP_pressure;BME280_temperature;BME280_humidity;BME280_pressure;Samples;Min_cycle;Max_cycle;Signal;HPM_P1;HPM_P2
2021/05/13 00:01:43;;;;;;;12.00;5.35;;;;;;;9.22;77.35;99520.25;5048939;28;20076;-72
2021/05/13 00:04:09;;;;;;;9.55;4.90;;;;;;;9.27;77.21;99524.06;5046863;28;20045;-71
2021/05/13 00:06:35;;;;;;;10.07;5.18;;;;;;;9.19;77.25;99520.78;5045778;28;20097;-72
2021/05/13 00:09:02;;;;;;;10.20;5.07;;;;;;;9.24;76.99;99525.44;5046333;28;20052;-72
2021/05/13 00:11:33;;;;;;;16.67;9.53;;;;;;;9.28;76.92;99521.06;5046148;28;20041;-70
2021/05/13 00:14:00;;;;;;;16.65;10.07;;;;;;;9.36;76.84;99527.88;5036903;28;20409;-72
2021/05/13 00:16:32;;;;;;;20.48;11.68;;;;;;;9.46;76.77;99522.41;5048269;28;20413;-70
2021/05/13 00:19:00;;;;;;;21.75;12.50;;;;;;;9.59;76.63;99528.41;5046773;28;20521;-71
2021/05/13 00:21:28;;;;;;;20.05;12.60;;;;;;;9.68;76.24;99537.69;5043875;28;20532;-71
2021/05/13 00:24:06;;;;;;;18.27;11.40;;;;;;;9.73;76.24;99531.38;5050504;28;20044;-70
2021/05/13 00:26:47;;;;;;;15.90;10.60;;;;;;;9.78;76.13;99525.94;5045629;28;20048;-70
2021/05/13 00:29:14;;;;;;;18.20;10.50;;;;;;;9.85;76.14;99540.09;5048598;28;20052;-71
2021/05/13 00:31:41;;;;;;;15.05;8.55;;;;;;;9.85;75.87;99542.84;5044721;28;20044;-70
2021/05/13 00:34:08;;;;;;;16.35;9.02;;;;;;;9.92;75.93;99539.81;5047781;28;20045;-71
2021/05/13 00:36:38;;;;;;;17.35;8.38;;;;;;;10.01;76.04;99542.81;5046206;28;20412;-71
2021/05/13 00:39:04;;;;;;;13.38;7.45;;;;;;;10.06;75.92;99543.59;5045537;28;20460;-70
2021/05/13 00:41:30;;;;;;;12.20;7.15;;;;;;;10.16;75.59;99547.41;5036088;28;20061;-70
2021/05/13 00:43:59;;;;;;;16.77;6.97;;;;;;;10.21;75.26;99536.47;5044391;28;20052;-71
2021/05/13 00:46:26;;;;;;;13.48;7.10;;;;;;;10.08;75.31;99535.94;5048528;28;20570;-71
2021/05/13 00:49:00;;;;;;;14.10;7.38;;;;;;;9.96;75.35;99529.97;5050404;28;20493;-70
2021/05/13 00:51:27;;;;;;;15.27;8.35;;;;;;;9.89;75.44;99529.47;5048641;28;20048;-70
2021/05/13 00:53:55;;;;;;;25.10;13.25;;;;;;;9.83;75.44;99530.53;5049203;28;20041;-70
2021/05/13 00:56:22;;;;;;;23.33;16.40;;;;;;;9.81;75.55;99528.09;5048340;28;20045;-70
2021/05/13 00:58:51;;;;;;;26.95;19.00;;;;;;;9.76;75.67;99528.13;5044623;28;21546;-70
2021/05/13 01:01:18;;;;;;;23.30;16.60;;;;;;;9.62;75.73;99520.50;5034296;28;20291;-70
2021/05/13 01:03:45;;;;;;;18.83;13.52;;;;;;;9.74;75.49;99530.28;5037099;28;20044;-68
2021/05/13 01:06:13;;;;;;;20.67;13.15;;;;;;;9.74;75.21;99531.13;5032473;28;20049;-69
2021/05/13 01:08:41;;;;;;;13.45;8.60;;;;;;;9.72;75.43;99527.84;5039049;28;20045;-69
2021/05/13 01:11:10;;;;;;;14.35;7.93;;;;;;;9.69;75.13;99538.50;5045427;28;20037;-70
2021/05/13 01:13:50;;;;;;;13.68;8.00;;;;;;;9.65;75.30;99538.22;5045171;28;21309;-71
2021/05/13 01:16:33;;;;;;;16.02;8.07;;;;;;;9.62;75.18;99541.50;5039581;28;20087;-70
2021/05/13 01:19:00;;;;;;;13.77;8.32;;;;;;;9.52;75.24;99545.06;5048622;28;20408;-70
2021/05/13 01:21:27;;;;;;;13.10;7.55;;;;;;;9.51;75.41;99543.44;5047973;28;20047;-71
2021/05/13 01:23:53;;;;;;;11.98;7.30;;;;;;;9.45;75.40;99537.16;5047488;28;20036;-71
2021/05/13 01:26:21;;;;;;;13.85;7.75;;;;;;;9.40;75.78;99544.53;5049409;28;20045;-70
2021/05/13 01:28:47;;;;;;;13.35;8.25;;;;;;;9.32;75.95;99535.81;5046934;28;20132;-71
2021/05/13 01:31:14;;;;;;;13.20;8.20;;;;;;;9.27;76.15;99538.50;5048878;28;20072;-70
2021/05/13 01:33:42;;;;;;;15.00;8.32;;;;;;;9.20;76.19;99541.50;5037448;28;20049;-70
2021/05/13 01:36:09;;;;;;;15.85;8.95;;;;;;;9.19;76.33;99547.25;5057498;28;20064;-71
2021/05/13 01:38:36;;;;;;;14.32;8.30;;;;;;;9.08;76.78;99536.31;5039369;28;20480;-71
2021/05/13 01:41:02;;;;;;;16.02;8.38;;;;;;;9.17;76.55;99546.72;5047457;28;20051;-70
2021/05/13 01:43:30;;;;;;;15.80;8.60;;;;;;;9.23;76.47;99537.44;5048046;28;20072;-72
2021/05/13 01:45:58;;;;;;;14.38;8.68;;;;;;;9.25;76.17;99537.97;5046943;28;20041;-71
2021/05/13 01:48:23;;;;;;;;;;;;;;;9.27;76.26;99535.78;5047397;28;20041;-69
2021/05/13 01:50:50;;;;;;;15.43;9.52;;;;;;;9.31;76.09;99541.53;5046917;28;19924;-71
2021/05/13 01:53:16;;;;;;;15.57;9.30;;;;;;;9.25;76.14;99535.25;5047324;28;20096;-69
2021/05/13 01:55:43;;;;;;;16.02;10.35;;;;;;;9.25;76.37;99543.44;5045938;28;20053;-69
2021/05/13 01:58:09;;;;;;;18.38;10.63;;;;;;;9.29;76.38;99546.44;5048073;28;20280;-71
2021/05/13 02:00:37;;;;;;;18.58;10.57;;;;;;;9.28;76.40;99534.69;5045691;28;20041;-70
2021/05/13 02:03:04;;;;;;;19.30;11.52;;;;;;;9.31;76.43;99544.25;5042878;28;20044;-70
2021/05/13 02:05:30;;;;;;;17.70;11.15;;;;;;;9.28;76.41;99537.41;5049168;28;20128;-70
2021/05/13 02:07:57;;;;;;;19.15;11.77;;;;;;;9.27;76.42;99543.16;5045818;28;20041;-69
2021/05/13 02:10:23;;;;;;;19.83;10.82;;;;;;;9.28;76.45;99544.81;5048285;28;20065;-71
2021/05/13 02:12:50;;;;;;;17.10;10.90;;;;;;;9.31;76.55;99549.72;5048011;28;20045;-71
2021/05/13 02:15:18;;;;;;;20.52;11.63;;;;;;;9.35;76.35;99545.34;5043019;28;20102;-70
2021/05/13 02:17:45;;;;;;;28.27;12.00;;;;;;;9.40;76.04;99539.91;5049027;28;20571;-69
2021/05/13 02:20:13;;;;;;;25.08;13.25;;;;;;;9.42;75.90;99543.16;5044235;28;20056;-70
2021/05/13 02:22:39;;;;;;;31.13;13.63;;;;;;;9.40;76.04;99539.06;5043143;28;20083;-70
2021/05/13 02:25:07;;;;;;;27.20;13.77;;;;;;;9.40;75.96;99544.53;5034483;28;20049;-71
2021/05/13 02:27:33;;;;;;;27.90;14.68;;;;;;;9.49;75.75;99557.34;5048841;28;20045;-70
2021/05/13 02:30:00;;;;;;;28.52;14.38;;;;;;;9.33;75.92;99528.41;5046332;28;20144;-70
2021/05/13 02:32:27;;;;;;;27.13;14.50;;;;;;;9.48;75.83;99555.72;5044330;28;20038;-71
2021/05/13 02:34:53;;;;;;;35.88;15.27;;;;;;;9.50;75.64;99550.78;5045728;28;20111;-70
2021/05/13 02:37:19;;;;;;;37.60;17.38;;;;;;;9.57;75.60;99557.91;5040642;28;20498;-71
2021/05/13 02:39:45;;;;;;;43.17;18.65;;;;;;;9.36;76.31;99546.97;5046807;28;20128;-68
2021/05/13 02:42:11;;;;;;;40.03;18.17;;;;;;;9.46;75.80;99554.38;5043782;28;20149;-70
2021/05/13 02:44:37;;;;;;;34.83;17.33;;;;;;;9.55;75.64;99560.91;5046739;28;20086;-69
2021/05/13 02:47:04;;;;;;;33.55;16.13;;;;;;;9.56;75.36;99554.34;5047973;28;20052;-70
2021/05/13 02:49:30;;;;;;;31.88;15.43;;;;;;;9.64;75.55;99559.25;5048583;28;20738;-70
2021/05/13 02:51:56;;;;;;;29.52;16.95;;;;;;;9.67;75.48;99551.59;5045060;28;20041;-70
2021/05/13 02:54:23;;;;;;;33.65;18.48;;;;;;;9.65;75.49;99549.13;5045190;28;20420;-71
2021/05/13 02:56:49;;;;;;;31.08;16.90;;;;;;;9.74;75.34;99552.13;5043384;28;20433;-69
2021/05/13 02:59:16;;;;;;;30.08;16.73;;;;;;;9.85;75.12;99548.31;5042148;28;20064;-70
2021/05/13 03:01:42;;;;;;;31.23;17.42;;;;;;;9.96;74.72;99551.03;5041861;28;20047;-71
2021/05/13 03:04:10;;;;;;;27.35;16.63;;;;;;;9.96;74.54;99538.16;5046905;28;20075;-70
2021/05/13 03:06:39;;;;;;;28.38;16.38;;;;;;;10.07;74.25;99541.72;5049938;28;20095;-71
2021/05/13 03:09:21;;;;;;;27.60;16.33;;;;;;;10.04;74.30;99539.50;5047208;28;20048;-70
2021/05/13 03:11:46;;;;;;;31.95;16.98;;;;;;;10.05;74.15;99539.25;5049318;28;20043;-70
2021/05/13 03:14:12;;;;;;;24.33;15.80;;;;;;;10.09;74.19;99544.97;5051188;28;20049;-72
2021/05/13 03:16:38;;;;;;;26.73;15.95;;;;;;;10.16;74.04;99547.41;5052543;28;20053;-69
2021/05/13 03:19:09;;;;;;;28.25;16.00;;;;;;;10.08;73.99;99541.41;5049170;28;20051;-69
2021/05/13 03:21:40;;;;;;;32.47;17.83;;;;;;;10.08;74.15;99543.34;5050524;28;20410;-70
2021/05/13 03:24:16;;;;;;;34.80;19.65;;;;;;;10.05;74.13;99544.72;5063341;28;20072;-70
2021/05/13 03:29:13;;;;;;;43.67;17.20;;;;;;;10.02;74.19;99550.72;5049027;28;20041;-70
2021/05/13 03:31:39;;;;;;;35.80;15.88;;;;;;;10.07;74.16;99556.16;5050470;28;20408;-70
2021/05/13 03:34:06;;;;;;;25.42;16.27;;;;;;;10.02;74.05;99541.72;5047752;28;20036;-72
2021/05/13 03:36:32;;;;;;;24.90;14.52;;;;;;;10.16;73.85;99555.63;5051312;28;20136;-71
2021/05/13 03:39:00;;;;;;;23.17;15.00;;;;;;;10.18;73.83;99553.41;5047703;28;20597;-70
2021/05/13 03:41:26;;;;;;;27.83;14.90;;;;;;;10.42;73.40;99559.09;5048463;28;20048;-70
2021/05/13 03:43:52;;;;;;;25.70;14.07;;;;;;;10.59;73.03;99552.47;5043664;28;20048;-70
2021/05/13 03:46:18;;;;;;;25.98;13.90;;;;;;;10.66;72.97;99555.69;5047982;28;20059;-70
2021/05/13 03:48:44;;;;;;;25.10;13.70;;;;;;;10.76;72.87;99541.97;5048936;28;20106;-70
2021/05/13 03:51:10;;;;;;;23.83;13.43;;;;;;;10.84;72.61;99531.53;5049264;28;20477;-70
2021/05/13 03:53:36;;;;;;;28.77;13.68;;;;;;;10.78;72.64;99526.09;5050265;28;20136;-70
2021/05/13 03:56:05;;;;;;;28.25;14.00;;;;;;;10.80;72.58;99533.19;5043715;28;20139;-71
2021/05/13 03:58:36;;;;;;;33.80;13.98;;;;;;;10.72;72.72;99527.25;5050217;28;20132;-70
2021/05/13 04:03:52;;;;;;;27.02;14.13;;;;;;;10.47;73.17;99539.94;5029619;28;20095;-71
2021/05/13 04:06:18;;;;;;;28.20;13.85;;;;;;;10.53;73.11;99535.25;5051186;28;20583;-70
2021/05/13 04:08:44;;;;;;;25.50;13.43;;;;;;;10.62;72.88;99544.53;5049312;28;20041;-71
2021/05/13 04:11:11;;;;;;;25.85;12.77;;;;;;;10.66;72.69;99538.50;5045908;28;20501;-71
2021/05/13 04:13:40;;;;;;;29.13;14.60;;;;;;;10.63;72.94;99537.97;5046820;28;20049;-70
2021/05/13 04:16:07;;;;;;;22.88;13.50;;;;;;;10.68;73.06;99533.56;5038318;28;20041;-71
2021/05/13 04:18:33;;;;;;;27.45;14.85;;;;;;;10.53;73.31;99529.78;5048095;28;20044;-69
2021/05/13 04:20:59;;;;;;;26.25;16.77;;;;;;;10.26;74.12;99522.78;5044505;28;20041;-69
2021/05/13 04:23:26;;;;;;;26.38;17.40;;;;;;;10.17;74.60;99514.34;5043557;28;20063;-71
2021/05/13 04:25:52;;;;;;;31.95;17.02;;;;;;;10.19;74.54;99509.41;5043882;28;20421;-71
2021/05/13 04:28:19;;;;;;;30.15;17.20;;;;;;;10.31;74.21;99509.09;5049993;28;20151;-71
2021/05/13 04:30:45;;;;;;;32.38;18.33;;;;;;;10.32;74.45;99512.66;5036506;28;20045;-71
2021/05/13 04:33:12;;;;;;;28.50;16.95;;;;;;;10.46;74.16;99505.50;5049598;28;20092;-71
2021/05/13 04:35:38;;;;;;;29.05;17.55;;;;;;;10.63;73.79;99507.88;5045770;28;20048;-70
2021/05/13 04:38:04;;;;;;;22.27;14.60;;;;;;;10.75;73.40;99510.25;5049952;28;20049;-70
2021/05/13 04:40:30;;;;;;;23.13;14.43;;;;;;;10.45;73.59;99505.78;5048414;28;20537;-73
2021/05/13 04:42:56;;;;;;;18.42;12.80;;;;;;;10.50;73.34;99494.84;5046529;28;20532;-71
2021/05/13 04:45:24;;;;;;;20.85;12.07;;;;;;;10.47;72.95;99479.81;5047902;28;20294;-73
2021/05/13 04:50:25;;;;;;;17.00;10.40;;;;;;;10.69;71.95;99502.38;5045406;28;20051;-69
2021/05/13 04:52:51;;;;;;;18.30;10.27;;;;;;;10.80;71.82;99514.06;5047668;28;20044;-72
2021/05/13 04:55:17;;;;;;;18.77;9.82;;;;;;;10.84;71.71;99505.00;5031026;28;20053;-69
2021/05/13 04:57:44;;;;;;;15.35;9.40;;;;;;;10.87;71.92;99504.44;5049268;28;20461;-69
2021/05/13 05:00:11;;;;;;;17.50;9.98;;;;;;;11.01;71.43;99503.81;5046199;28;20045;-72
2021/05/13 05:02:38;;;;;;;;;;;;;;;11.09;71.20;99505.09;5045484;28;20052;-69
2021/05/13 05:05:06;;;;;;;17.20;9.32;;;;;;;11.18;70.57;99506.16;5038818;28;20779;-69
2021/05/13 05:07:32;;;;;;;;;;;;;;;11.30;70.33;99503.03;5048944;28;20092;-70
2021/05/13 05:09:57;;;;;;;16.65;8.82;;;;;;;11.33;70.28;99500.53;5037326;28;19951;-71
2021/05/13 05:12:24;;;;;;;16.17;9.35;;;;;;;11.40;70.16;99496.66;5046456;28;20398;-72
2021/05/13 05:14:50;;;;;;;17.55;9.57;;;;;;;11.49;69.74;99501.19;5044987;28;20132;-73
2021/05/13 05:17:16;;;;;;;17.08;9.88;;;;;;;11.41;69.28;99485.41;5043084;28;20441;-73
2021/05/13 05:19:43;;;;;;;19.40;8.25;;;;;;;11.46;68.19;99490.84;5044389;28;20060;-71
2021/05/13 05:22:09;;;;;;;17.55;8.75;;;;;;;11.47;67.48;99483.41;5044420;28;20048;-73
2021/05/13 05:24:35;;;;;;;14.95;8.20;;;;;;;11.49;67.58;99492.19;5042228;28;20049;-71
2021/05/13 05:27:01;;;;;;;16.13;8.25;;;;;;;11.53;66.76;99493.25;5045249;28;20045;-71
2021/05/13 05:29:28;;;;;;;17.85;9.40;;;;;;;11.61;66.78;99489.84;5049275;28;20551;-73
2021/05/13 05:31:56;;;;;;;20.75;8.90;;;;;;;11.71;66.89;99491.69;5048589;28;20483;-72
2021/05/13 05:34:22;;;;;;;17.65;8.98;;;;;;;11.83;67.00;99490.47;5026405;28;20044;-73
2021/05/13 05:36:49;;;;;;;14.05;7.82;;;;;;;11.93;66.55;99501.31;5036762;28;20079;-72
2021/05/13 05:39:15;;;;;;;17.90;9.10;;;;;;;12.07;67.06;99498.72;5042035;28;20057;-73
2021/05/13 05:41:42;;;;;;;15.98;8.25;;;;;;;12.15;66.73;99492.59;5033157;28;20049;-71
2021/05/13 05:44:08;;;;;;;13.68;6.97;;;;;;;12.14;65.72;99490.13;5039990;28;20592;-73
2021/05/13 05:46:34;;;;;;;13.77;7.00;;;;;;;12.31;65.96;99492.41;5037938;28;20053;-72
2021/05/13 05:49:00;;;;;;;13.65;6.15;;;;;;;12.36;65.21;99491.53;5039683;28;20578;-73
2021/05/13 05:51:26;;;;;;;10.80;5.65;;;;;;;12.41;64.60;99491.44;5036754;28;20505;-72
2021/05/13 05:53:53;;;;;;;11.50;5.57;;;;;;;12.51;64.44;99491.31;5037348;28;20053;-72
2021/05/13 05:56:19;;;;;;;10.55;5.00;;;;;;;12.55;63.94;99488.78;5037450;28;20051;-73
2021/05/13 05:58:46;;;;;;;13.65;4.82;;;;;;;12.56;63.86;99477.53;5033159;28;20448;-73
2021/05/13 06:01:12;;;;;;;13.85;5.68;;;;;;;12.63;64.50;99488.94;5041289;28;20045;-69
2021/05/13 06:03:38;;;;;;;14.38;5.03;;;;;;;12.60;63.52;99489.53;5044522;28;20045;-70
2021/05/13 06:06:05;;;;;;;16.05;4.10;;;;;;;12.63;62.29;99493.63;5049272;28;20049;-69
2021/05/13 06:08:31;;;;;;;13.63;4.32;;;;;;;12.81;61.83;99486.50;5048023;28;20047;-69
2021/05/13 06:10:58;;;;;;;9.35;4.20;;;;;;;12.96;60.21;99477.22;5033754;28;20041;-70
2021/05/13 06:13:24;;;;;;;15.63;4.07;;;;;;;13.13;60.09;99490.41;5045159;28;20127;-69
2021/05/13 06:15:50;;;;;;;10.10;4.32;;;;;;;13.00;59.46;99464.53;5046655;28;20132;-72
2021/05/13 06:18:16;;;;;;;9.23;4.25;;;;;;;13.23;59.93;99489.41;5045621;28;20255;-70
2021/05/13 06:20:42;;;;;;;11.75;4.00;;;;;;;13.30;59.78;99480.78;5044660;28;20065;-71
2021/05/13 06:23:08;;;;;;;11.95;4.22;;;;;;;13.37;59.51;99478.47;5042228;28;20049;-71
2021/05/13 06:25:36;;;;;;;13.73;4.50;;;;;;;13.45;59.44;99472.31;5035936;28;20378;-71
2021/05/13 06:28:04;;;;;;;9.60;3.97;;;;;;;13.61;59.05;99475.59;5044845;28;20057;-71
2021/05/13 06:30:30;;;;;;;10.90;4.05;;;;;;;13.83;58.99;99479.59;5047424;28;20078;-71
2021/05/13 06:32:56;;;;;;;13.65;3.72;;;;;;;13.84;57.90;99470.22;5047083;28;20045;-71
2021/05/13 06:35:22;;;;;;;11.15;3.55;;;;;;;13.76;57.29;99470.91;5042737;28;20045;-70
2021/05/13 06:37:49;;;;;;;12.52;4.28;;;;;;;13.77;55.78;99458.81;5051425;28;20049;-71
2021/05/13 06:40:17;;;;;;;12.18;4.30;;;;;;;13.83;56.29;99459.53;5053012;28;20459;-69
2021/05/13 06:42:44;;;;;;;11.50;4.07;;;;;;;14.05;56.32;99456.06;5053866;28;20539;-70
2021/05/13 06:45:13;;;;;;;14.05;4.80;;;;;;;14.08;55.93;99449.94;5052682;28;20068;-71
2021/05/13 06:47:40;;;;;;;15.70;4.88;;;;;;;14.17;55.77;99450.88;5038409;28;20429;-70
2021/05/13 06:50:07;;;;;;;10.80;4.30;;;;;;;14.23;55.87;99445.25;5042241;28;20497;-71
2021/05/13 06:52:34;;;;;;;;;;;;;;;14.22;55.18;99457.38;5044210;28;20049;-70
2021/05/13 06:55:00;;;;;;;15.45;5.18;;;;;;;14.23;55.34;99448.81;5041494;28;19932;-70
2021/05/13 06:57:26;;;;;;;16.40;5.65;;;;;;;14.28;55.45;99448.72;5038256;28;20124;-71
2021/05/13 06:59:52;;;;;;;12.70;5.47;;;;;;;14.30;55.34;99448.41;5049492;28;20068;-71
2021/05/13 07:02:21;;;;;;;11.93;5.75;;;;;;;14.36;55.30;99441.66;5042149;28;20532;-70
2021/05/13 07:04:47;;;;;;;13.38;5.13;;;;;;;14.36;54.81;99438.91;5042645;28;20052;-70
2021/05/13 07:07:14;;;;;;;12.40;4.80;;;;;;;14.41;54.60;99446.25;5049633;28;20085;-70
2021/05/13 07:09:42;;;;;;;13.53;5.40;;;;;;;14.27;53.97;99449.00;5044275;28;20078;-70
2021/05/13 07:12:09;;;;;;;10.18;4.55;;;;;;;14.40;53.93;99431.66;5053076;28;20710;-69
2021/05/13 07:14:34;;;;;;;10.85;5.18;;;;;;;14.38;54.03;99433.13;5045038;28;20106;-68
2021/05/13 07:17:01;;;;;;;12.63;5.20;;;;;;;14.52;53.96;99430.31;5034546;28;20464;-70
2021/05/13 07:19:27;;;;;;;12.48;5.10;;;;;;;14.51;53.68;99437.75;5040810;28;20049;-68
2021/05/13 07:21:55;;;;;;;10.23;5.10;;;;;;;14.53;52.94;99427.28;5052887;28;20045;-71
2021/05/13 07:24:21;;;;;;;14.82;5.70;;;;;;;14.60;53.44;99433.13;5053602;28;20171;-69
2021/05/13 07:26:48;;;;;;;13.45;5.40;;;;;;;14.56;53.54;99421.13;5036046;28;20309;-69
2021/05/13 07:29:14;;;;;;;12.80;5.43;;;;;;;14.67;52.98;99420.88;5047093;28;20356;-71
2021/05/13 07:31:40;;;;;;;9.93;5.65;;;;;;;14.80;53.22;99425.56;5037880;28;20077;-71
2021/05/13 07:34:06;;;;;;;9.90;5.15;;;;;;;14.95;53.08;99421.63;5035497;28;20413;-70
2021/05/13 07:36:33;;;;;;;13.63;6.15;;;;;;;14.96;53.30;99415.00;5051966;28;20127;-70
2021/05/13 07:38:59;;;;;;;10.60;5.38;;;;;;;15.02;52.41;99405.47;5050894;28;20548;-69
2021/05/13 07:41:25;;;;;;;13.43;5.50;;;;;;;15.21;52.70;99412.69;5052839;28;20098;-70
2021/05/13 07:43:53;;;;;;;13.48;5.63;;;;;;;15.11;52.14;99408.25;5050757;28;20568;-71
2021/05/13 07:46:20;;;;;;;10.40;5.40;;;;;;;15.36;51.89;99417.00;5047431;28;20060;-70
2021/05/13 07:48:49;;;;;;;12.05;5.53;;;;;;;15.51;51.34;99412.22;5066576;28;20068;-71
2021/05/13 07:51:16;;;;;;;10.95;4.95;;;;;;;15.56;50.57;99399.09;5046671;28;20052;-71
2021/05/13 07:53:43;;;;;;;12.32;4.35;;;;;;;15.51;50.63;99406.69;5043146;28;20509;-70
2021/05/13 07:56:10;;;;;;;9.32;4.47;;;;;;;15.43;50.58;99403.56;5058460;28;20417;-72
2021/05/13 07:58:36;;;;;;;10.68;4.97;;;;;;;15.30;50.45;99401.75;5049143;28;20048;-71
2021/05/13 08:01:02;;;;;;;10.68;5.05;;;;;;;15.40;50.58;99406.97;5046931;28;20709;-69
2021/05/13 08:03:28;;;;;;;11.20;5.00;;;;;;;15.53;50.30;99397.00;5033945;28;20100;-70
2021/05/13 08:05:54;;;;;;;16.30;4.40;;;;;;;15.59;50.09;99381.94;5044866;28;20335;-69
2021/05/13 08:08:21;;;;;;;11.50;4.20;;;;;;;15.72;49.17;99382.94;5045735;28;20114;-70
2021/05/13 08:10:48;;;;;;;8.13;3.80;;;;;;;15.83;48.95;99380.69;5049076;28;20068;-70
2021/05/13 08:13:15;;;;;;;11.20;3.55;;;;;;;15.88;48.91;99375.06;5045988;28;20041;-69
2021/05/13 08:15:41;;;;;;;18.02;4.10;;;;;;;15.91;49.75;99375.56;5038395;28;20103;-68
2021/05/13 08:18:07;;;;;;;10.98;4.65;;;;;;;16.01;49.11;99367.78;5042477;28;20090;-70
2021/05/13 08:20:34;;;;;;;10.50;4.20;;;;;;;15.96;48.61;99375.41;5045511;28;20036;-71
2021/05/13 08:23:00;;;;;;;13.50;4.40;;;;;;;16.02;48.32;99377.69;5048557;28;20045;-71
2021/05/13 08:25:26;;;;;;;13.38;4.28;;;;;;;15.92;49.35;99369.75;5051825;28;20049;-71
2021/05/13 08:27:53;;;;;;;8.90;3.90;;;;;;;16.02;49.46;99374.13;5043403;28;20041;-71
2021/05/13 08:30:21;;;;;;;8.73;3.58;;;;;;;16.09;48.71;99368.16;5044780;28;20052;-71
2021/05/13 08:32:48;;;;;;;10.52;3.47;;;;;;;16.12;48.74;99367.50;5046194;28;20067;-70
2021/05/13 08:35:14;;;;;;;9.13;3.40;;;;;;;16.26;48.31;99357.13;5048985;28;20037;-70
2021/05/13 08:37:40;;;;;;;16.63;3.63;;;;;;;16.27;48.25;99363.44;5046133;28;20044;-70
2021/05/13 08:40:08;;;;;;;10.57;3.30;;;;;;;16.30;48.04;99355.34;5046727;28;20068;-70
2021/05/13 08:42:34;;;;;;;8.25;3.00;;;;;;;16.30;48.07;99373.81;5043929;28;20049;-72
2021/05/13 08:45:02;;;;;;;9.27;3.03;;;;;;;16.28;47.64;99354.84;5048270;28;20037;-68
2021/05/13 08:47:29;;;;;;;10.13;3.05;;;;;;;16.66;47.30;99369.09;5045003;28;20057;-67
2021/05/13 08:49:55;;;;;;;22.27;2.75;;;;;;;16.99;46.54;99352.03;5050374;28;20452;-70
2021/05/13 08:52:25;;;;;;;8.38;2.65;;;;;;;17.29;46.16;99349.31;5044191;28;20058;-69
2021/05/13 08:54:52;;;;;;;7.70;3.00;;;;;;;17.41;45.12;99352.22;5046289;28;20568;-72
2021/05/13 08:57:18;;;;;;;;;;;;;;;17.42;44.21;99355.78;5046043;28;20052;-67
2021/05/13 08:59:44;;;;;;;6.47;2.80;;;;;;;17.50;44.17;99340.31;5046121;28;19971;-70
2021/05/13 09:02:15;;;;;;;12.50;3.15;;;;;;;17.48;44.07;99345.34;5033529;28;20553;-75
2021/05/13 09:04:43;;;;;;;11.90;2.63;;;;;;;17.30;45.20;99342.66;5031860;28;20048;-75
2021/05/13 09:07:14;;;;;;;14.07;3.33;;;;;;;17.28;44.52;99342.19;5042489;28;20519;-74
2021/05/13 09:09:54;;;;;;;8.57;3.95;;;;;;;17.38;44.87;99327.19;5050077;28;20045;-76
2021/05/13 09:12:21;;;;;;;13.35;3.38;;;;;;;17.48;45.65;99339.81;5038491;28;20037;-77
2021/05/13 09:14:56;;;;;;;10.35;3.15;;;;;;;17.61;45.30;99347.06;5045818;28;20045;-77
2021/05/13 09:17:24;;;;;;;7.20;3.30;;;;;;;17.42;44.39;99319.88;5043170;28;20052;-77
2021/05/13 09:19:51;;;;;;;10.45;2.90;;;;;;;17.53;44.62;99332.16;5033853;28;20041;-76
2021/05/13 09:22:21;;;;;;;9.00;3.60;;;;;;;17.65;43.33;99330.63;5041966;28;20550;-77
2021/05/13 09:24:49;;;;;;;13.68;3.72;;;;;;;17.73;43.39;99310.44;5040675;28;20779;-78
2021/05/13 09:27:23;;;;;;;10.18;2.80;;;;;;;17.83;42.31;99326.63;5040324;28;20048;-76
2021/05/13 09:30:08;;;;;;;10.13;3.28;;;;;;;17.96;41.98;99332.22;5052040;28;20049;-81
2021/05/13 09:32:37;;;;;;;13.07;2.90;;;;;;;18.04;42.40;99328.63;5051209;28;20067;-79
2021/05/13 09:35:09;;;;;;;7.07;2.78;;;;;;;18.10;41.82;99324.50;5036897;28;20152;-77
2021/05/13 09:37:36;;;;;;;11.77;2.90;;;;;;;18.12;42.58;99332.47;5050710;28;20067;-80
2021/05/13 09:40:03;;;;;;;6.03;2.42;;;;;;;18.22;43.03;99343.13;5048460;28;20048;-75
2021/05/13 09:42:29;;;;;;;7.85;2.83;;;;;;;18.05;41.99;99341.31;5048835;28;20055;-76
2021/05/13 09:44:55;;;;;;;9.38;2.80;;;;;;;17.85;42.94;99315.22;5051540;28;20429;-75
2021/05/13 09:47:26;;;;;;;14.68;3.08;;;;;;;18.06;42.17;99345.69;5049728;28;20243;-74
2021/05/13 09:50:02;;;;;;;6.10;2.75;;;;;;;17.94;42.75;99351.13;5048075;28;20044;-76
2021/05/13 09:52:36;;;;;;;7.47;3.13;;;;;;;18.14;42.54;99355.09;5043222;28;20041;-76
2021/05/13 09:55:14;;;;;;;14.65;4.13;;;;;;;18.06;43.17;99348.47;5044843;28;20037;-75
2021/05/13 09:57:47;;;;;;;8.23;3.70;;;;;;;18.20;43.38;99348.19;5018269;28;20041;-74
2021/05/13 10:00:30;;;;;;;14.70;3.72;;;;;;;18.33;42.95;99351.81;5039225;28;20053;-76
2021/05/13 10:02:58;;;;;;;14.73;3.30;;;;;;;18.34;43.27;99344.34;5012832;28;20376;-74
2021/05/13 10:05:25;;;;;;;17.85;3.60;;;;;;;18.50;42.63;99344.53;5062486;28;20167;-75
2021/05/13 10:07:51;;;;;;;13.30;3.75;;;;;;;18.42;42.83;99358.09;5043731;28;20477;-76
2021/05/13 10:10:17;;;;;;;8.27;3.30;;;;;;;18.35;43.60;99338.47;5047715;28;20041;-76
2021/05/13 10:12:44;;;;;;;13.50;3.63;;;;;;;18.51;43.83;99349.72;5046696;28;20517;-74
2021/05/13 10:15:13;;;;;;;7.25;3.20;;;;;;;18.68;43.36;99345.16;5037392;28;20048;-77
2021/05/13 10:17:42;;;;;;;12.07;3.25;;;;;;;18.71;42.92;99333.41;5045466;28;20469;-76
2021/05/13 10:20:11;;;;;;;10.55;3.13;;;;;;;18.91;42.77;99344.78;5031107;28;20044;-74
2021/05/13 10:22:41;;;;;;;11.00;3.22;;;;;;;18.78;43.07;99341.16;5044163;28;20110;-75
2021/05/13 10:25:25;;;;;;;12.60;3.05;;;;;;;18.81;42.33;99340.47;5045778;28;20076;-75
2021/05/13 10:27:54;;;;;;;10.85;2.55;;;;;;;18.91;41.47;99331.75;5036175;28;20564;-75
2021/05/13 10:30:22;;;;;;;8.63;3.25;;;;;;;18.52;42.17;99337.50;5048338;28;20501;-76
2021/05/13 10:33:18;;;;;;;13.93;5.00;;;;;;;18.59;41.45;99333.38;5047814;28;20048;-77
2021/05/13 10:36:04;;;;;;;18.02;7.78;;;;;;;18.45;42.39;99336.44;4988614;28;20571;-77
2021/05/13 10:38:51;;;;;;;15.82;5.82;;;;;;;18.69;42.82;99330.19;5049365;28;20049;-76
2021/05/13 10:41:37;;;;;;;20.70;3.80;;;;;;;18.51;43.29;99322.03;5050067;28;20045;-75
2021/05/13 10:44:35;;;;;;;13.30;2.58;;;;;;;18.39;42.90;99327.53;5041816;28;20045;-76
2021/05/13 10:47:03;;;;;;;11.07;2.72;;;;;;;18.46;43.08;99343.59;5039871;28;20106;-74
2021/05/13 10:49:30;;;;;;;17.02;3.42;;;;;;;18.37;43.22;99333.41;5039621;28;20060;-71
2021/05/13 10:51:57;;;;;;;11.73;2.70;;;;;;;17.97;43.97;99340.19;5037387;28;20053;-74
2021/05/13 10:54:44;;;;;;;10.30;2.63;;;;;;;17.89;44.08;99346.59;5034323;28;20060;-77
2021/05/13 10:57:20;;;;;;;9.00;2.75;;;;;;;17.79;44.02;99341.44;5040715;28;20051;-76
2021/05/13 11:00:18;;;;;;;8.82;2.70;;;;;;;17.60;44.33;99331.63;5048176;28;20045;-74
2021/05/13 11:02:46;;;;;;;7.57;2.20;;;;;;;17.46;44.65;99339.34;5022054;28;20619;-76
2021/05/13 11:05:45;;;;;;;11.60;2.60;;;;;;;17.48;45.50;99342.56;5040258;28;20049;-76
2021/05/13 11:08:27;;;;;;;9.80;2.80;;;;;;;17.40;46.21;99335.94;5037802;28;20078;-73
2021/05/13 11:10:58;;;;;;;7.93;2.58;;;;;;;17.21;46.78;99344.66;5045467;28;20056;-74
2021/05/13 11:13:41;;;;;;;12.57;2.35;;;;;;;17.07;46.05;99340.16;5027855;28;20053;-73
2021/05/13 11:16:44;;;;;;;10.52;2.33;;;;;;;16.97;46.43;99346.00;5041360;28;20041;-73
2021/05/13 11:19:21;;;;;;;13.13;2.80;;;;;;;16.99;45.92;99347.31;5037074;28;20056;-74
2021/05/13 11:21:59;;;;;;;18.33;4.60;;;;;;;16.87;45.64;99341.63;5061638;28;20041;-76
2021/05/13 11:24:37;;;;;;;12.98;3.58;;;;;;;16.81;46.15;99345.72;5048805;28;20104;-78
2021/05/13 11:27:06;;;;;;;20.83;3.72;;;;;;;16.68;46.73;99319.91;5046729;28;20052;-76
2021/05/13 11:29:46;;;;;;;12.25;3.00;;;;;;;16.58;46.49;99326.59;5044077;28;20603;-76
2021/05/13 11:32:14;;;;;;;15.85;3.15;;;;;;;16.67;46.69;99321.06;5035437;28;20525;-76
2021/05/13 11:34:45;;;;;;;12.93;3.30;;;;;;;16.64;47.23;99322.53;5040875;28;20044;-76
2021/05/13 11:37:35;;;;;;;11.98;2.90;;;;;;;16.67;46.88;99313.59;5048918;28;20413;-77
2021/05/13 11:40:24;;;;;;;14.80;3.40;;;;;;;16.86;46.09;99315.16;5045857;28;20094;-75
2021/05/13 11:43:16;;;;;;;12.95;3.90;;;;;;;16.95;45.67;99307.69;5011733;28;20046;-78